Time;durP1;ratioP1;P1;durP2;ratioP2;P2;SDS_P1;SDS_P2;PMS_P1;PMS_P2;Temp;Humidity;BMP_temperature;BMP_pressure;BME280_temperature;BME280_humidity;BME280_pressure;Samples;Min_cycle;Max_cycle;Signal;HPM_P1;HPM_P2
2022/08/15 00:01:52;;;;;;;;;;;;;;;-145.18;100.00;46490.47;5052993;28;20549;-72
2022/08/15 00:04:17;;;;;;;;;;;;;;;-145.18;100.00;46486.56;5053057;28;19925;-72
2022/08/15 00:06:45;;;;;;;;;;;;;;;-145.18;100.00;46480.69;5052459;28;19925;-72
2022/08/15 00:09:19;;;;;;;;;;;;;;;-145.18;100.00;46492.41;5053402;28;19985;-71
2022/08/15 00:11:46;;;;;;;;;;;;;;;-145.18;100.00;46510.00;5052662;28;20373;-72
2022/08/15 00:14:26;;;;;;;;;;;;;;;-145.18;100.00;46496.31;5053313;28;19924;-72
2022/08/15 00:16:52;;;;;;;;;;;;;;;-145.18;100.00;46492.41;5052399;28;20004;-72
2022/08/15 00:19:19;;;;;;;;;;;;;;;-145.18;100.00;46498.28;5053015;28;20409;-72
2022/08/15 00:21:46;;;;;;;;;;;;;;;-145.18;100.00;46488.50;5052504;28;19917;-72
2022/08/15 00:24:13;;;;;;;;;;;;;;;-145.18;100.00;46508.03;5053019;28;19921;-71
2022/08/15 00:26:39;;;;;;;;;;;;;;;-145.18;100.00;46500.22;5052434;28;19960;-72
2022/08/15 00:29:06;;;;;;;;;;;;;;;-145.18;100.00;46484.59;5053215;28;19952;-72
2022/08/15 00:31:31;;;;;;;;;;;;;;;-145.18;100.00;46476.78;5052248;28;19916;-71
2022/08/15 00:33:57;;;;;;;;;;;;;;;-145.18;100.00;46486.56;5052820;28;20047;-71
2022/08/15 00:36:23;;;;;;;;;;;;;;;-145.18;100.00;46498.28;5052380;28;19952;-71
2022/08/15 00:38:48;;;;;;;;;;;;;;;-145.18;100.00;46502.19;5052235;28;20010;-72
2022/08/15 00:43:59;;;;;;;;;;;;;;;-145.18;100.00;46500.22;5052954;28;19943;-72
2022/08/15 00:46:25;;;;;;;;;;;;;;;-145.18;100.00;46484.59;5052093;28;19925;-72
2022/08/15 00:48:51;;;;;;;;;;;;;;;-145.18;100.00;46480.69;5051218;28;19978;-72
2022/08/15 00:51:19;;;;;;;;;;;;;;;-145.18;100.00;46498.28;5052131;28;20373;-72
2022/08/15 00:53:46;;;;;;;;;;;;;;;-145.18;100.00;46480.69;5052055;28;20055;-72
2022/08/15 00:56:12;;;;;;;;;;;;;;;-145.18;100.00;46490.47;5052175;28;19917;-72
2022/08/15 00:58:39;;;;;;;;;;;;;;;-145.18;100.00;46488.50;5052291;28;19924;-71
2022/08/15 01:01:04;;;;;;;;;;;;;;;-145.18;100.00;46480.69;5052011;28;19921;-72
2022/08/15 01:03:32;;;;;;;;;;;;;;;-145.18;100.00;46492.41;5051501;28;19933;-72
2022/08/15 01:05:59;;;;;;;;;;;;;;;-145.18;100.00;46496.31;5052084;28;19963;-72
2022/08/15 01:08:30;;;;;;;;;;;;;;;-145.18;100.00;46496.31;5051838;28;19924;-72
2022/08/15 01:10:56;;;;;;;;;;;;;;;-145.18;100.00;46498.28;5051981;28;19964;-72
2022/08/15 01:13:22;;;;;;;;;;;;;;;-145.18;100.00;46488.50;5051587;28;19921;-72
2022/08/15 01:15:47;;;;;;;;;;;;;;;-145.18;100.00;46490.47;5050528;28;19931;-71
2022/08/15 01:18:12;;;;;;;;;;;;;;;-145.18;100.00;46484.59;5051764;28;19921;-72
2022/08/15 01:20:40;;;;;;;;;;;;;;;-145.18;100.00;46490.47;5051586;28;19990;-72
2022/08/15 01:23:06;;;;;;;;;;;;;;;-145.18;100.00;46500.22;5051533;28;19963;-72
2022/08/15 01:25:31;;;;;;;;;;;;;;;-145.18;100.00;46506.09;5051309;28;20365;-72
2022/08/15 01:28:01;;;;;;;;;;;;;;;-145.18;100.00;46488.50;5051501;28;19917;-71
2022/08/15 01:30:30;;;;;;;;;;;;;;;-145.18;100.00;46492.41;5051730;28;19920;-71
2022/08/15 01:32:56;;;;;;;;;;;;;;;-145.18;100.00;46517.81;5051212;28;19920;-72
2022/08/15 01:35:21;;;;;;;;;;;;;;;-145.18;100.00;46506.09;5051369;28;20471;-71
2022/08/15 01:37:50;;;;;;;;;;;;;;;-145.18;100.00;46504.13;5050974;28;19924;-72
2022/08/15 01:40:24;;;;;;;;;;;;;;;-145.18;100.00;46511.94;5051518;28;19920;-72
2022/08/15 01:42:50;;;;;;;;;;;;;;;-145.18;100.00;46511.94;5050792;28;20344;-72
2022/08/15 01:45:18;;;;;;;;;;;;;;;-145.18;100.00;46506.09;5051592;28;19917;-72
2022/08/15 01:48:06;;;;;;;;;;;;;;;-145.18;100.00;46502.19;5050610;28;20325;-71
2022/08/15 01:50:36;;;;;;;;;;;;;;;-145.18;100.00;46488.50;5051068;28;20011;-72
2022/08/15 01:53:07;;;;;;;;;;;;;;;-145.18;100.00;46519.75;5051133;28;19917;-71
2022/08/15 01:55:43;;;;;;;;;;;;;;;-145.18;100.00;46504.13;5051065;28;19963;-72
2022/08/15 01:58:08;;;;;;;;;;;;;;;-145.18;100.00;46500.22;5051041;28;19917;-71
2022/08/15 02:03:09;;;;;;;;;;;;;;;-145.18;100.00;46492.41;4051223;22;20067;-70
2022/08/15 02:05:38;;;;;;;;;;;;;;;-145.18;100.00;46511.94;5011761;28;19921;-69
2022/08/15 02:08:03;;;;;;;;;;;;;;;-145.18;100.00;46511.94;5011227;28;19922;-70
2022/08/15 02:10:28;;;;;;;;;;;;;;;-145.18;100.00;46500.22;5011635;28;19968;-70
2022/08/15 02:12:53;;;;;;;;;;;;;;;-145.18;100.00;46504.13;5010736;28;19933;-70
2022/08/15 02:15:20;;;;;;;;;;;;;;;-145.18;100.00;46519.75;5011714;28;19921;-70
2022/08/15 02:17:45;;;;;;;;;;;;;;;-145.18;100.00;46504.13;5011037;28;19918;-69
2022/08/15 02:20:12;;;;;;;;;;;;;;;-145.18;100.00;46494.38;5011390;28;19928;-69
2022/08/15 02:22:37;;;;;;;;;;;;;;;-145.18;100.00;46490.47;5010908;28;19922;-69
2022/08/15 02:25:04;;;;;;;;;;;;;;;-145.18;100.00;46541.25;5011383;28;19922;-69
2022/08/15 02:27:31;;;;;;;;;;;;;;;-145.18;100.00;46531.47;5011011;28;19924;-69
2022/08/15 02:29:56;;;;;;;;;;;;;;;-145.18;100.00;46531.47;5011206;28;19997;-70
2022/08/15 02:32:22;;;;;;;;;;;;;;;-145.18;100.00;46521.72;5011073;28;20040;-70
2022/08/15 02:34:47;;;;;;;;;;;;;;;-145.18;100.00;46513.91;5010952;28;19968;-69
2022/08/15 02:37:18;;;;;;;;;;;;;;;-145.18;100.00;46506.09;5010862;28;19921;-69
2022/08/15 02:39:44;;;;;;;;;;;;;;;-145.18;100.00;46498.28;5011158;28;19918;-70
2022/08/15 02:42:09;;;;;;;;;;;;;;;-145.18;100.00;46500.22;5009831;28;19932;-70
2022/08/15 02:44:34;;;;;;;;;;;;;;;-145.18;100.00;46531.47;5011411;28;19921;-69
2022/08/15 02:47:00;;;;;;;;;;;;;;;-145.18;100.00;46506.09;5010489;28;19930;-70
2022/08/15 02:49:26;;;;;;;;;;;;;;;-145.18;100.00;46517.81;5011288;28;20402;-70
2022/08/15 02:51:52;;;;;;;;;;;;;;;-145.18;100.00;46510.00;5010559;28;19967;-70
2022/08/15 02:54:18;;;;;;;;;;;;;;;-145.18;100.00;46500.22;5011157;28;19928;-70
2022/08/15 02:56:44;;;;;;;;;;;;;;;-145.18;100.00;46494.38;5010843;28;20316;-70
2022/08/15 02:59:10;;;;;;;;;;;;;;;-145.18;100.00;46492.41;5010897;28;19948;-70
2022/08/15 03:01:37;;;;;;;;;;;;;;;-145.18;100.00;46498.28;5025728;28;19917;-70
2022/08/15 03:04:04;;;;;;;;;;;;;;;-145.18;100.00;46496.31;5050195;28;19921;-70
2022/08/15 03:06:32;;;;;;;;;;;;;;;-145.18;100.00;46504.13;5050783;28;19927;-70
2022/08/15 03:09:00;;;;;;;;;;;;;;;-145.18;100.00;46500.22;5049997;28;20506;-70
2022/08/15 03:11:26;;;;;;;;;;;;;;;-145.18;100.00;46504.13;5050475;28;19928;-70
2022/08/15 03:13:52;;;;;;;;;;;;;;;-145.18;100.00;46508.03;5053562;28;19932;-70
2022/08/15 03:16:18;;;;;;;;;;;;;;;-145.18;100.00;46506.09;5054323;28;19925;-70
2022/08/15 03:18:43;;;;;;;;;;;;;;;-145.18;100.00;46508.03;5053845;28;20312;-70
2022/08/15 03:21:10;;;;;;;;;;;;;;;-145.18;100.00;46500.22;5054404;28;19971;-70
2022/08/15 03:23:35;;;;;;;;;;;;;;;-145.18;100.00;46502.19;5053880;28;20145;-70
2022/08/15 03:26:01;;;;;;;;;;;;;;;-145.18;100.00;46510.00;5054044;28;20007;-70
2022/08/15 03:28:28;;;;;;;;;;;;;;;-145.18;100.00;46508.03;5053947;28;19917;-70
2022/08/15 03:30:55;;;;;;;;;;;;;;;-145.18;100.00;46508.03;5053819;28;20004;-70
2022/08/15 03:33:20;;;;;;;;;;;;;;;-145.18;100.00;46510.00;5053700;28;19917;-70
2022/08/15 03:35:47;;;;;;;;;;;;;;;-145.18;100.00;46508.03;5036073;28;20491;-70
2022/08/15 03:38:12;;;;;;;;;;;;;;;-145.18;100.00;46510.00;5053597;28;20274;-70
2022/08/15 03:40:38;;;;;;;;;;;;;;;-145.18;100.00;46515.84;5053815;28;19947;-70
2022/08/15 03:43:12;;;;;;;;;;;;;;;-145.18;100.00;46515.84;5053468;28;19978;-70
2022/08/15 03:45:38;;;;;;;;;;;;;;;-145.18;100.00;46504.13;5053789;28;19971;-70
2022/08/15 03:48:04;;;;;;;;;;;;;;;-145.18;100.00;46498.28;5053456;28;19979;-70
2022/08/15 03:50:29;;;;;;;;;;;;;;;-145.18;100.00;46500.22;5053856;28;20660;-70
2022/08/15 03:52:59;;;;;;;;;;;;;;;-145.18;100.00;46500.22;5052995;28;19971;-70
2022/08/15 03:55:26;;;;;;;;;;;;;;;-145.18;100.00;46510.00;5053609;28;19917;-69
2022/08/15 03:57:52;;;;;;;;;;;;;;;-145.18;100.00;46515.84;5052845;28;19916;-69
2022/08/15 04:00:19;;;;;;;;;;;;;;;-145.18;100.00;46502.19;5053482;28;20280;-70
2022/08/15 04:02:44;;;;;;;;;;;;;;;-145.18;100.00;46508.03;5052690;28;19921;-70
2022/08/15 04:05:11;;;;;;;;;;;;;;;-145.18;100.00;46504.13;5053589;28;20344;-70
2022/08/15 04:07:37;;;;;;;;;;;;;;;-145.18;100.00;46510.00;5053172;28;19928;-69
2022/08/15 04:10:06;;;;;;;;;;;;;;;-145.18;100.00;46511.94;5053121;28;19921;-70
2022/08/15 04:12:35;;;;;;;;;;;;;;;-145.18;100.00;46517.81;5053219;28;20436;-70
2022/08/15 04:15:04;;;;;;;;;;;;;;;-145.18;100.00;46510.00;5053026;28;20004;-69
2022/08/15 04:17:29;;;;;;;;;;;;;;;-145.18;100.00;46513.91;5052853;28;19928;-69
2022/08/15 04:19:54;;;;;;;;;;;;;;;-145.18;100.00;46508.03;5052985;28;19917;-69
2022/08/15 04:22:26;;;;;;;;;;;;;;;-145.18;100.00;46510.00;5052982;28;19928;-69
2022/08/15 04:24:52;;;;;;;;;;;;;;;-145.18;100.00;46504.13;5052492;28;19920;-70
2022/08/15 04:27:17;;;;;;;;;;;;;;;-145.18;100.00;46510.00;5052619;28;20592;-69
2022/08/15 04:29:42;;;;;;;;;;;;;;;-145.18;100.00;46515.84;5053014;28;19928;-70
2022/08/15 04:32:11;;;;;;;;;;;;;;;-145.18;100.00;46511.94;5052846;28;19921;-69
2022/08/15 04:34:38;;;;;;;;;;;;;;;-145.18;100.00;46515.84;5052940;28;19956;-70
2022/08/15 04:37:03;;;;;;;;;;;;;;;-145.18;100.00;46510.00;5052536;28;19927;-69
2022/08/15 04:39:28;;;;;;;;;;;;;;;-145.18;100.00;46511.94;5052756;28;20019;-69
2022/08/15 04:41:55;;;;;;;;;;;;;;;-145.18;100.00;46515.84;5052574;28;19921;-70
2022/08/15 04:44:20;;;;;;;;;;;;;;;-145.18;100.00;46508.03;5052315;28;19913;-70
2022/08/15 04:46:45;;;;;;;;;;;;;;;-145.18;100.00;46513.91;5052295;28;20036;-69
2022/08/15 04:49:12;;;;;;;;;;;;;;;-145.18;100.00;46508.03;5052258;28;19924;-69
2022/08/15 04:51:37;;;;;;;;;;;;;;;-145.18;100.00;46525.63;5052614;28;19925;-69
2022/08/15 04:54:03;;;;;;;;;;;;;;;-145.18;100.00;46541.25;5052012;28;19983;-69
2022/08/15 04:56:29;;;;;;;;;;;;;;;-145.18;100.00;46547.09;5052407;28;19912;-70
2022/08/15 04:58:54;;;;;;;;;;;;;;;-145.18;100.00;46547.09;5049528;28;19927;-70
2022/08/15 05:01:19;;;;;;;;;;;;;;;-145.18;100.00;46521.72;5031589;28;19925;-70
2022/08/15 05:03:44;;;;;;;;;;;;;;;-145.18;100.00;46527.56;5028749;28;20460;-69
2022/08/15 05:06:10;;;;;;;;;;;;;;;-145.18;100.00;46510.00;5032197;28;19925;-69
2022/08/15 05:08:36;;;;;;;;;;;;;;;-145.18;100.00;46515.84;5031089;28;19948;-69
2022/08/15 05:11:06;;;;;;;;;;;;;;;-145.18;100.00;46504.13;5030551;28;20428;-70
2022/08/15 05:13:35;;;;;;;;;;;;;;;-145.18;100.00;46511.94;5034592;28;19932;-71
2022/08/15 05:16:00;;;;;;;;;;;;;;;-145.18;100.00;46508.03;5036824;28;20259;-71
2022/08/15 05:18:27;;;;;;;;;;;;;;;-145.18;100.00;46502.19;5040316;28;19917;-70
2022/08/15 05:20:52;;;;;;;;;;;;;;;-145.18;100.00;46506.09;5041654;28;19931;-70
2022/08/15 05:23:18;;;;;;;;;;;;;;;-145.18;100.00;46511.94;5041133;28;19917;-70
2022/08/15 05:25:45;;;;;;;;;;;;;;;-145.18;100.00;46504.13;5039885;28;19917;-71
2022/08/15 05:28:11;;;;;;;;;;;;;;;-145.18;100.00;46498.28;5048443;28;19920;-71
2022/08/15 05:30:37;;;;;;;;;;;;;;;-145.18;100.00;46492.41;5051943;28;19924;-71
2022/08/15 05:33:07;;;;;;;;;;;;;;;-145.18;100.00;46500.22;5049888;28;20415;-70
2022/08/15 05:35:33;;;;;;;;;;;;;;;-145.18;100.00;46500.22;5030841;28;19921;-70
2022/08/15 05:38:00;;;;;;;;;;;;;;;-145.18;100.00;46510.00;5031261;28;20044;-70
2022/08/15 05:40:28;;;;;;;;;;;;;;;-145.18;100.00;46500.22;5031740;28;20028;-70
2022/08/15 05:43:13;;;;;;;;;;;;;;;-145.18;100.00;46508.03;5030370;28;19921;-70
2022/08/15 05:45:43;;;;;;;;;;;;;;;-145.18;100.00;46513.91;5030382;28;20003;-70
2022/08/15 05:48:11;;;;;;;;;;;;;;;-145.18;100.00;46510.00;5031323;28;19917;-70
2022/08/15 05:50:44;;;;;;;;;;;;;;;-145.18;100.00;46515.84;5031666;28;19921;-70
2022/08/15 05:53:21;;;;;;;;;;;;;;;-145.18;100.00;46511.94;5031167;28;19956;-71
2022/08/15 05:55:54;;;;;;;;;;;;;;;-145.18;100.00;46511.94;5031094;28;19940;-71
2022/08/15 05:58:31;;;;;;;;;;;;;;;-145.18;100.00;46504.13;5031160;28;19921;-70
2022/08/15 06:01:10;;;;;;;;;;;;;;;-145.18;100.00;46508.03;5031127;28;19928;-70
2022/08/15 06:03:37;;;;;;;;;;;;;;;-145.18;100.00;46508.03;5030814;28;20015;-70
2022/08/15 06:06:05;;;;;;;;;;;;;;;-145.18;100.00;46510.00;5030978;28;19925;-71
2022/08/15 06:08:33;;;;;;;;;;;;;;;-145.18;100.00;46508.03;5031144;28;19917;-70
2022/08/15 06:11:04;;;;;;;;;;;;;;;-145.18;100.00;46511.94;5030099;28;19933;-70
2022/08/15 06:13:36;;;;;;;;;;;;;;;-145.18;100.00;46498.28;5029953;28;19999;-70
2022/08/15 06:16:01;;;;;;;;;;;;;;;-145.18;100.00;46508.03;5030463;28;19916;-70
2022/08/15 06:18:27;;;;;;;;;;;;;;;-145.18;100.00;46500.22;5030572;28;20461;-70
2022/08/15 06:20:53;;;;;;;;;;;;;;;-145.18;100.00;46496.31;5030737;28;19921;-70
2022/08/15 06:23:18;;;;;;;;;;;;;;;-145.18;100.00;46508.03;5029484;28;20317;-71
2022/08/15 06:25:52;;;;;;;;;;;;;;;-145.18;100.00;46498.28;5030731;28;19917;-70
2022/08/15 06:28:17;;;;;;;;;;;;;;;-145.18;100.00;46517.81;5030901;28;19971;-70
2022/08/15 06:30:48;;;;;;;;;;;;;;;-145.18;100.00;46496.31;5050739;28;19917;-71
2022/08/15 06:33:32;;;;;;;;;;;;;;;-145.18;100.00;46498.28;5049915;28;19928;-70
2022/08/15 06:36:00;;;;;;;;;;;;;;;-145.18;100.00;46510.00;5050581;28;20375;-71
2022/08/15 06:38:32;;;;;;;;;;;;;;;-145.18;100.00;46504.13;5050470;28;19917;-70
2022/08/15 06:41:18;;;;;;;;;;;;;;;-145.18;100.00;46510.00;5050262;28;19927;-70
2022/08/15 06:43:45;;;;;;;;;;;;;;;-145.18;100.00;46506.09;5050063;28;19920;-70
2022/08/15 06:46:10;;;;;;;;;;;;;;;-145.18;100.00;46517.81;5050977;28;19917;-70
2022/08/15 06:48:38;;;;;;;;;;;;;;;-145.18;100.00;46511.94;5053399;28;20019;-70
2022/08/15 06:51:05;;;;;;;;;;;;;;;-145.18;100.00;46510.00;5037877;28;19921;-70
2022/08/15 06:54:00;;;;;;;;;;;;;;;-145.18;100.00;46515.84;5034232;28;20364;-70
2022/08/15 06:56:31;;;;;;;;;;;;;;;-145.18;100.00;46513.91;5024712;28;19924;-69
2022/08/15 06:58:56;;;;;;;;;;;;;;;-145.18;100.00;46510.00;5033957;28;19917;-69
2022/08/15 07:01:40;;;;;;;;;;;;;;;-145.18;100.00;46510.00;5034188;28;20443;-70
2022/08/15 07:04:13;;;;;;;;;;;;;;;-145.18;100.00;46517.81;5033934;28;19921;-69
2022/08/15 07:06:41;;;;;;;;;;;;;;;-145.18;100.00;46517.81;5034242;28;19994;-70
2022/08/15 07:09:25;;;;;;;;;;;;;;;-145.18;100.00;46519.75;5016377;28;19925;-69
2022/08/15 07:11:54;;;;;;;;;;;;;;;-145.18;100.00;46510.00;5033362;28;20243;-70
2022/08/15 07:14:34;;;;;;;;;;;;;;;-145.18;100.00;46506.09;5033940;28;19918;-69
2022/08/15 07:17:13;;;;;;;;;;;;;;;-145.18;100.00;46506.09;5033705;28;20267;-70
2022/08/15 07:19:38;;;;;;;;;;;;;;;-145.18;100.00;46502.19;5034020;28;20297;-72
2022/08/15 07:22:05;;;;;;;;;;;;;;;-145.18;100.00;46504.13;5033989;28;19925;-70
2022/08/15 07:24:31;;;;;;;;;;;;;;;-145.18;100.00;46504.13;5033510;28;20444;-70
2022/08/15 07:27:02;;;;;;;;;;;;;;;-145.18;100.00;46508.03;5032975;28;20012;-70
2022/08/15 07:29:28;;;;;;;;;;;;;;;-145.18;100.00;46498.28;5013426;28;19955;-68
2022/08/15 07:32:01;;;;;;;;;;;;;;;-145.18;100.00;46508.03;5032014;28;20321;-71
2022/08/15 07:34:27;;;;;;;;;;;;;;;-145.18;100.00;46504.13;5022824;28;19922;-69
2022/08/15 07:37:03;;;;;;;;;;;;;;;-145.18;100.00;46511.94;5035428;28;20324;-70
2022/08/15 07:39:34;;;;;;;;;;;;;;;-145.18;100.00;46508.03;5031713;28;19961;-69
2022/08/15 07:42:09;;;;;;;;;;;;;;;-145.18;100.00;46496.31;5047344;28;19928;-72
2022/08/15 07:44:34;;;;;;;;;;;;;;;-145.18;100.00;46504.13;5053561;28;19921;-71
2022/08/15 07:47:01;;;;;;;;;;;;;;;-145.18;100.00;46494.38;5053520;28;20330;-71
2022/08/15 07:49:34;;;;;;;;;;;;;;;-145.18;100.00;46498.28;5053519;28;19920;-72
2022/08/15 07:52:15;;;;;;;;;;;;;;;-145.18;100.00;46496.31;5053976;28;19924;-71
2022/08/15 07:54:43;;;;;;;;;;;;;;;-145.18;100.00;46500.22;5052850;28;19940;-71
2022/08/15 07:57:26;;;;;;;;;;;;;;;-145.18;100.00;46504.13;5053738;28;19917;-71
2022/08/15 08:00:04;;;;;;;;;;;;;;;-145.18;100.00;46506.09;5052708;28;19924;-71
2022/08/15 08:02:33;;;;;;;;;;;;;;;-145.18;100.00;46494.38;5051461;28;19929;-72
2022/08/15 08:05:00;;;;;;;;;;;;;;;-145.18;100.00;46504.13;5036417;28;19980;-72
2022/08/15 08:07:37;;;;;;;;;;;;;;;-145.18;100.00;46506.09;5033489;28;19921;-72
2022/08/15 08:10:14;;;;;;;;;;;;;;;-145.18;100.00;46510.00;5032733;28;19928;-71
2022/08/15 08:13:03;;;;;;;;;;;;;;;-145.18;100.00;46498.28;5033032;28;19975;-71
2022/08/15 08:15:37;;;;;;;;;;;;;;;-145.18;100.00;46504.13;5022956;28;19971;-71
2022/08/15 08:18:13;;;;;;;;;;;;;;;-145.18;100.00;46504.13;5032704;28;20393;-71
2022/08/15 08:20:46;;;;;;;;;;;;;;;-145.18;100.00;46500.22;5033238;28;19917;-71
2022/08/15 08:23:15;;;;;;;;;;;;;;;-145.18;100.00;46500.22;5032889;28;19929;-71
2022/08/15 08:25:50;;;;;;;;;;;;;;;-145.18;100.00;46502.19;5033004;28;19925;-72
2022/08/15 08:28:28;;;;;;;;;;;;;;;-145.18;100.00;46506.09;5015362;28;19965;-72
2022/08/15 08:31:02;;;;;;;;;;;;;;;-145.18;100.00;46500.22;5032871;28;20001;-71
2022/08/15 08:33:39;;;;;;;;;;;;;;;-145.18;100.00;46494.38;5029578;28;19917;-72
2022/08/15 08:36:37;;;;;;;;;;;;;;;-145.18;100.00;46490.47;5046622;28;19928;-72
2022/08/15 08:39:02;;;;;;;;;;;;;;;-145.18;100.00;46470.94;5017936;28;19951;-72
2022/08/15 08:41:35;;;;;;;;;;;;;;;-145.18;100.00;46480.69;5046621;28;19929;-72
2022/08/15 08:44:18;;;;;;;;;;;;;;;-145.18;100.00;46490.47;5031674;28;20016;-69
2022/08/15 08:46:49;;;;;;;;;;;;;;;-145.18;100.00;46486.56;5031327;28;20016;-72
2022/08/15 08:49:24;;;;;;;;;;;;;;;-145.18;100.00;46490.47;5032031;28;19917;-71
2022/08/15 08:51:49;;;;;;;;;;;;;;;-145.18;100.00;46476.78;5046176;28;19925;-72
2022/08/15 08:54:15;;;;;;;;;;;;;;;-145.18;100.00;46488.50;5051999;28;20431;-72
2022/08/15 08:56:44;;;;;;;;;;;;;;;-145.18;100.00;46482.66;5052067;28;19920;-72
2022/08/15 08:59:18;;;;;;;;;;;;;;;-145.18;100.00;46488.50;5051483;28;19919;-72
2022/08/15 09:01:44;;;;;;;;;;;;;;;-145.18;100.00;46494.38;5050390;28;19943;-72
2022/08/15 09:04:13;;;;;;;;;;;;;;;-145.18;100.00;46490.47;5050885;28;19921;-72
2022/08/15 09:06:40;;;;;;;;;;;;;;;-145.18;100.00;46496.31;5033649;28;20557;-72
2022/08/15 09:09:11;;;;;;;;;;;;;;;-145.18;100.00;46496.31;5051269;28;19917;-72
2022/08/15 09:11:47;;;;;;;;;;;;;;;-145.18;100.00;46492.41;5043321;28;19921;-72
2022/08/15 09:14:17;;;;;;;;;;;;;;;-145.18;100.00;46508.03;5044812;28;19966;-71
2022/08/15 09:16:43;;;;;;;;;;;;;;;-145.18;100.00;46506.09;5028679;28;19932;-72
2022/08/15 09:19:15;;;;;;;;;;;;;;;-145.18;100.00;46506.09;5044743;28;19971;-71
2022/08/15 09:21:42;;;;;;;;;;;;;;;-145.18;100.00;46498.28;5051631;28;19917;-72
2022/08/15 09:24:08;;;;;;;;;;;;;;;-145.18;100.00;46506.09;5047577;28;19917;-72
2022/08/15 09:26:42;;;;;;;;;;;;;;;-145.18;100.00;46494.38;5051545;28;20424;-71
2022/08/15 09:29:22;;;;;;;;;;;;;;;-145.18;100.00;46496.31;5043911;28;19925;-72
2022/08/15 09:32:09;;;;;;;;;;;;;;;-145.18;100.00;46488.50;5030838;28;19921;-72
2022/08/15 09:34:41;;;;;;;;;;;;;;;-145.18;100.00;46496.31;5030446;28;20397;-72
2022/08/15 09:37:17;;;;;;;;;;;;;;;-145.18;100.00;46490.47;5028649;28;19987;-71
2022/08/15 09:39:54;;;;;;;;;;;;;;;-145.18;100.00;46502.19;5027872;28;19932;-71
2022/08/15 09:42:25;;;;;;;;;;;;;;;-145.18;100.00;46490.47;5031596;28;19936;-71
2022/08/15 09:44:58;;;;;;;;;;;;;;;-145.18;100.00;46482.66;5029155;28;19929;-73
2022/08/15 09:47:51;;;;;;;;;;;;;;;-145.18;100.00;46494.38;5029705;28;19921;-73
2022/08/15 09:50:19;;;;;;;;;;;;;;;-145.18;100.00;46486.56;5028585;28;19948;-72
2022/08/15 09:52:59;;;;;;;;;;;;;;;-145.18;100.00;46484.59;5026750;28;19999;-72
2022/08/15 09:55:41;;;;;;;;;;;;;;;-145.18;100.00;46490.47;5030628;28;20393;-72
2022/08/15 09:58:12;;;;;;;;;;;;;;;-145.18;100.00;46488.50;5028306;28;20324;-73
2022/08/15 10:00:37;;;;;;;;;;;;;;;-145.18;100.00;46480.69;5031124;28;20319;-72
2022/08/15 10:03:06;;;;;;;;;;;;;;;-145.18;100.00;46478.75;5030521;28;19921;-72
2022/08/15 10:05:43;;;;;;;;;;;;;;;-145.18;100.00;46482.66;5029333;28;19921;-71
2022/08/15 10:08:08;;;;;;;;;;;;;;;-145.18;100.00;46472.88;5046477;28;20062;-72
2022/08/15 10:10:36;;;;;;;;;;;;;;;-145.18;100.00;46498.28;5050797;28;20008;-72
2022/08/15 10:13:04;;;;;;;;;;;;;;;-145.18;100.00;46496.31;5030399;28;20495;-72
2022/08/15 10:15:40;;;;;;;;;;;;;;;-145.18;100.00;46484.59;5030164;28;19932;-71
2022/08/15 10:18:08;;;;;;;;;;;;;;;-145.18;100.00;46486.56;5030400;28;20340;-72
2022/08/15 10:20:33;;;;;;;;;;;;;;;-145.18;100.00;46467.03;5027267;28;19929;-71
2022/08/15 10:22:59;;;;;;;;;;;;;;;-145.18;100.00;46488.50;5029502;28;19943;-71
2022/08/15 10:25:30;;;;;;;;;;;;;;;-145.18;100.00;46494.38;5028522;28;19917;-71
2022/08/15 10:28:05;;;;;;;;;;;;;;;-145.18;100.00;46488.50;5029770;28;20008;-71
2022/08/15 10:30:32;;;;;;;;;;;;;;;-145.18;100.00;46488.50;5030680;28;19917;-71
2022/08/15 10:32:59;;;;;;;;;;;;;;;-145.18;100.00;46488.50;5030294;28;20468;-71
2022/08/15 10:35:45;;;;;;;;;;;;;;;-145.18;100.00;46478.75;5025517;28;19917;-72
2022/08/15 10:38:13;;;;;;;;;;;;;;;-145.18;100.00;46486.56;5030710;28;19924;-71
2022/08/15 10:40:38;;;;;;;;;;;;;;;-145.18;100.00;46484.59;5030422;28;19917;-71
2022/08/15 10:43:11;;;;;;;;;;;;;;;-145.18;100.00;46498.28;5012688;28;19967;-71
2022/08/15 10:45:41;;;;;;;;;;;;;;;-145.18;100.00;46463.13;5028193;28;20012;-71
2022/08/15 10:48:17;;;;;;;;;;;;;;;-145.18;100.00;46463.13;5030418;28;20059;-71
2022/08/15 10:50:51;;;;;;;;;;;;;;;-145.18;100.00;46453.34;5028494;28;19921;-71
2022/08/15 10:53:28;;;;;;;;;;;;;;;-145.18;100.00;46472.88;5028021;28;19917;-71
2022/08/15 10:56:05;;;;;;;;;;;;;;;-145.18;100.00;46472.88;5027256;28;19924;-71
2022/08/15 10:58:32;;;;;;;;;;;;;;;-145.18;100.00;46488.50;5030041;28;19925;-71
2022/08/15 11:01:04;;;;;;;;;;;;;;;-145.18;100.00;46472.88;5029864;28;19925;-71
2022/08/15 11:03:42;;;;;;;;;;;;;;;-145.18;100.00;46470.94;5029378;28;19921;-71
2022/08/15 11:06:12;;;;;;;;;;;;;;;-145.18;100.00;46457.25;5029681;28;19928;-72
2022/08/15 11:08:49;;;;;;;;;;;;;;;-145.18;100.00;46476.78;5029086;28;20385;-71
2022/08/15 11:11:15;;;;;;;;;;;;;;;-145.18;100.00;46470.94;5009368;28;19967;-72
2022/08/15 11:13:42;;;;;;;;;;;;;;;-145.18;100.00;46476.78;5011036;28;19922;-71
2022/08/15 11:16:14;;;;;;;;;;;;;;;-145.18;100.00;46500.22;5029235;28;20052;-72
2022/08/15 11:18:47;;;;;;;;;;;;;;;-145.18;100.00;46500.22;5022845;28;19979;-71
2022/08/15 11:21:16;;;;;;;;;;;;;;;-145.18;100.00;46468.97;5029618;28;19929;-71
2022/08/15 11:23:42;;;;;;;;;;;;;;;-145.18;100.00;46478.75;5028516;28;20034;-72
2022/08/15 11:26:08;;;;;;;;;;;;;;;-145.18;100.00;46484.59;5029883;28;20396;-71
2022/08/15 11:28:34;;;;;;;;;;;;;;;-145.18;100.00;46453.34;5029892;28;19917;-71
2022/08/15 11:31:02;;;;;;;;;;;;;;;-145.18;100.00;46531.47;5029899;28;19921;-72
2022/08/15 11:33:34;;;;;;;;;;;;;;;-145.18;100.00;46513.91;5031290;28;19917;-71
2022/08/15 11:36:15;;;;;;;;;;;;;;;-145.18;100.00;46619.38;5033638;28;19943;-71
2022/08/15 11:38:50;;;;;;;;;;;;;;;-145.18;100.00;46496.31;5032996;28;19928;-71
2022/08/15 11:41:24;;;;;;;;;;;;;;;-145.18;100.00;46447.50;5033886;28;20012;-71
2022/08/15 11:43:51;;;;;;;;;;;;;;;-145.18;100.00;46420.13;5033487;28;19917;-71
2022/08/15 11:46:17;;;;;;;;;;;;;;;-145.18;100.00;46701.41;5033584;28;19925;-71
2022/08/15 11:48:47;;;;;;;;;;;;;;;-145.18;100.00;46453.34;5033068;28;19928;-71
2022/08/15 11:51:15;;;;;;;;;;;;;;;-145.18;100.00;46627.19;5033971;28;20007;-71
2022/08/15 11:54:00;;;;;;;;;;;;;;;-145.18;100.00;46664.31;5032982;28;20004;-71
2022/08/15 11:56:42;;;;;;;;;;;;;;;-145.18;100.00;46699.47;5033303;28;19917;-70
2022/08/15 11:59:14;;;;;;;;;;;;;;;-145.18;100.00;46455.31;5033025;28;19921;-70
2022/08/15 12:01:40;;;;;;;;;;;;;;;-145.18;100.00;47027.63;5031276;28;19921;-71
2022/08/15 12:04:06;;;;;;;;;;;;;;;-145.18;100.00;46976.84;5014272;28;19925;-71
2022/08/15 12:06:37;;;;;;;;;;;;;;;-145.18;100.00;47002.25;5033330;28;19996;-71
2022/08/15 12:09:07;;;;;;;;;;;;;;;-145.18;100.00;46959.25;5032572;28;20101;-71
2022/08/15 12:11:38;;;;;;;;;;;;;;;-145.18;100.00;46963.19;5033421;28;19925;-71
2022/08/15 12:14:12;;;;;;;;;;;;;;;-145.18;100.00;46988.56;5032156;28;20344;-71
2022/08/15 12:16:45;;;;;;;;;;;;;;;-145.18;100.00;46984.66;5032589;28;19921;-71
2022/08/15 12:19:29;;;;;;;;;;;;;;;-145.18;100.00;46969.03;5032081;28;20452;-71
2022/08/15 12:21:56;;;;;;;;;;;;;;;-145.18;100.00;47015.91;5032796;28;19921;-71
2022/08/15 12:24:22;;;;;;;;;;;;;;;-145.18;100.00;47025.69;5032621;28;19924;-71
2022/08/15 12:26:49;;;;;;;;;;;;;;;-145.18;100.00;47012.00;5032969;28;20388;-70
2022/08/15 12:29:16;;;;;;;;;;;;;;;-145.18;100.00;47051.09;5032491;28;19921;-72
2022/08/15 12:31:41;;;;;;;;;;;;;;;-145.18;100.00;47012.00;5032836;28;19918;-70
2022/08/15 12:34:10;;;;;;;;;;;;;;;-145.18;100.00;47017.88;5032474;28;19917;-71
2022/08/15 12:36:36;;;;;;;;;;;;;;;-145.18;100.00;46990.53;5032864;28;19917;-71